Meteo Giornale » Osservazioni meteo Stati Uniti (USA) » North Wilkesboro Wilkes
ore: 08:55 - Osservazioni Meteo North Wilkesboro Wilkes
Lat. 36° 13' N Lon. 81° 5' W Alt. 396 metri s.l.m.
23 °C
Sereno
Temp. 24 Ore
19 °C
32 °C
Nord
0 Km/h
Dew point 20 °C
Umidità 83 %
Visibilità 10 Km
Il sole sorge alle ore 06:56
Il sole tramonta alle ore 19:52
| Data e Ora | Cielo e Fenomeni | T °C | DP °C | Um. % | Pres. hPa | Vis. km | Vento km/h | |
|---|---|---|---|---|---|---|---|---|
| Oggi h: 08:55 | Sereno | 23 | 20 | 83 | 1023 | 10 | N 0 | |
| Oggi h: 08:35 | Sereno | 22 | 20 | 88 | 1023 | 10 | N 0 | |
| Oggi h: 08:15 | Sereno | 21 | 20 | 94 | 1023 | 10 | N 0 | |
| Oggi h: 07:55 | Sereno | 20 | 20 | 100 | 1023 | 10 | N 0 | |
| Oggi h: 07:35 | Sereno | 19 | 19 | 100 | 1022 | 10 | N 0 | |
| Oggi h: 07:18 | Foschia | 19 | 19 | 100 | 1022 | 8 | N 0 | |
| Oggi h: 06:58 | Sereno | 19 | 19 | 100 | 1022 | 11 | N 0 | |
| Oggi h: 06:38 | Sereno | 19 | 19 | 100 | 1022 | 11 | N 0 | |
| Oggi h: 06:18 | Sereno | 19 | 19 | 100 | 1022 | 11 | N 0 | |
| Oggi h: 05:59 | Sereno | 20 | 19 | 93 | 1022 | 10 | N 0 | |
| Oggi h: 05:38 | Sereno | 21 | 20 | 94 | 1021 | 10 | N 0 | |
| Oggi h: 05:18 | Sereno | 21 | 20 | 94 | 1022 | 10 | N 5.5 | |
| Oggi h: 04:58 | Sereno | 20 | 20 | 100 | 1022 | 10 | N 0 | |
| Oggi h: 04:38 | Sereno | 20 | 20 | 100 | 1022 | 10 | N 0 | |
| Oggi h: 04:19 | Sereno | 20 | 20 | 100 | 1022 | 10 | N 0 | |
| Oggi h: 03:59 | Sereno | 20 | 20 | 100 | 1022 | 10 | N 0 | |
| Oggi h: 03:38 | Sereno | 21 | 21 | 100 | 1022 | 10 | N 0 | |
| Oggi h: 03:18 | Sereno | 21 | 21 | 100 | 1022 | 11 | N 0 | |
| Oggi h: 03:01 | Sereno | 21 | 21 | 100 | 1022 | 10 | N 0 | |
| Oggi h: 02:38 | Sereno | 21 | 21 | 100 | 1022 | 10 | N 0 | |
| Oggi h: 02:18 | Sereno | 21 | 21 | 100 | 1022 | 10 | N 0 | |
| Oggi h: 01:58 | Sereno | 21 | 21 | 100 | 1022 | 11 | N 0 | |
| Oggi h: 01:38 | Sereno | 21 | 21 | 100 | 1022 | 10 | N 0 | |
| Oggi h: 01:18 | Sereno | 21 | 21 | 100 | 1022 | 10 | N 0 | |
| Oggi h: 00:58 | Sereno | 22 | 21 | 94 | 1023 | 10 | N 0 | |
| Oggi h: 00:38 | Sereno | 21 | 21 | 100 | 1022 | 10 | N 0 | |
| Oggi h: 00:18 | Sereno | 21 | 21 | 100 | 1022 | 10 | N 0 | |
| Ieri h: 23:58 | Sereno | 22 | 21 | 94 | 1022 | 10 | N 0 | |
| Ieri h: 23:38 | Sereno | 22 | 22 | 100 | 1022 | 10 | N 0 | |
| Ieri h: 23:19 | Sereno | 22 | 22 | 100 | 1022 | 10 | N 0 | |
| Ieri h: 22:58 | Sereno | 22 | 22 | 100 | 1022 | 10 | N 0 | |
| Ieri h: 22:38 | Sereno | 22 | 22 | 100 | 1022 | 10 | N 0 | |
| Ieri h: 22:18 | Sereno | 22 | 22 | 100 | 1022 | 10 | N 0 | |
| Ieri h: 21:58 | Sereno | 23 | 22 | 94 | 1022 | 10 | N 0 | |
| Ieri h: 21:38 | Sereno | 23 | 22 | 94 | 1022 | 10 | N 0 | |
| Ieri h: 21:18 | Sereno | 23 | 22 | 94 | 1022 | 10 | N 0 | |
| Ieri h: 20:58 | Sereno | 23 | 22 | 94 | 1022 | 10 | N 0 | |
| Ieri h: 20:38 | Sereno | 24 | 22 | 88 | 1021 | 10 | N 0 | |
| Ieri h: 20:18 | Sereno | 24 | 22 | 88 | 1021 | 10 | N 5.5 | |
| Ieri h: 20:01 | Sereno | 24 | 23 | 94 | 1021 | 10 | N 0 | |
| Ieri h: 19:38 | Sereno | 26 | 22 | 78 | 1021 | 10 | N 0 | |
| Ieri h: 19:19 | Sereno | 25 | 22 | 83 | 1021 | 10 | N 0 | |
| Ieri h: 18:59 | Sereno | 26 | 23 | 83 | 1021 | 10 | N 0 | |
| Ieri h: 18:39 | Sereno | 28 | 22 | 69 | 1022 | 10 | N 0 | |
| Ieri h: 18:18 | Sereno | 29 | 21 | 62 | 1021 | 10 | N 0 | |
| Ieri h: 18:00 | Sereno | 29 | 21 | 62 | 1021 | 10 | N 5.5 | |
| Ieri h: 17:39 | Sereno | 29 | 21 | 62 | 1022 | 10 | SO 7.4 | |
| Ieri h: 17:18 | Sereno | 29 | 21 | 62 | 1022 | 10 | N 5.5 | |
| Ieri h: 17:02 | Sereno | 29 | 22 | 66 | 1022 | 10 | N 5.5 | |
| Ieri h: 16:38 | Sereno | 28 | 22 | 69 | 1022 | 10 | O/SO 9.3 | |
| Ieri h: 16:18 | Sereno | 26 | 21 | 73 | 1022 | 10 | O 9.3 | |
| Ieri h: 16:02 | Sereno | 26 | 21 | 73 | 1022 | 10 | O 9.3 | |
| Ieri h: 15:38 | Nuvoloso | 26 | 21 | 73 | 1023 | 10 | N 0 | |
| Ieri h: 15:20 | Molto Nuvoloso | 25 | 20 | 73 | 1023 | 10 | N 5.5 | |
| Ieri h: 15:02 | Coperto | 25 | 21 | 78 | 1023 | 10 | SO 7.4 | |
| Ieri h: 14:38 | Coperto | 26 | 20 | 69 | 1023 | 10 | N 5.5 | |
| Ieri h: 14:18 | Molto Nuvoloso | 31 | 21 | 55 | 1023 | 10 | NE 20.3 | |
| Ieri h: 13:55 | Sereno | 32 | 21 | 52 | 1022 | 10 | SE 7.4 | |
| Ieri h: 13:30 | Sereno | 30 | 20 | 55 | 1023 | 10 | E/SE 7.4 | |
| Ieri h: 13:15 | Sereno | 31 | 20 | 52 | 1023 | 10 | N 5.5 | |
| Ieri h: 12:55 | Sereno | 30 | 20 | 55 | 1023 | 10 | N 0 | |
| Ieri h: 12:35 | Sereno | 30 | 19 | 51 | 1023 | 10 | N 0 | |
| Ieri h: 12:15 | Sereno | 30 | 20 | 55 | 1024 | 10 | N 5.5 | |
| Ieri h: 11:55 | Sereno | 29 | 20 | 58 | 1024 | 10 | N 0 | |
| Ieri h: 11:35 | Sereno | 28 | 21 | 65 | 1024 | 10 | N 0 | |
| Ieri h: 11:15 | Sereno | 28 | 21 | 65 | 1024 | 10 | N 0 | |
| Ieri h: 10:55 | Sereno | 27 | 21 | 69 | 1024 | 10 | N 0 | |
| Ieri h: 10:35 | Sereno | 26 | 21 | 73 | 1024 | 10 | N 0 | |
| Ieri h: 10:15 | Sereno | 25 | 21 | 78 | 1024 | 10 | N 0 | |
| Ieri h: 09:55 | Sereno | 25 | 21 | 78 | 1023 | 10 | N 0 | |
| Ieri h: 09:35 | Sereno | 24 | 20 | 78 | 1024 | 10 | N 0 | |



